createdAt,value
2019-01-30T00:00:29.841Z,85.25
2019-01-30T00:02:58.191Z,85.11
2019-01-30T00:05:26.547Z,84.78
2019-01-30T00:07:55.009Z,84.59
2019-01-30T00:10:23.976Z,84.51
2019-01-30T00:12:52.441Z,84.86
2019-01-30T00:15:20.794Z,84.98
2019-01-30T00:17:49.084Z,85.27
2019-01-30T00:20:17.363Z,85.04
2019-01-30T00:22:45.857Z,84.81
2019-01-30T00:25:14.668Z,85.23
2019-01-30T00:27:42.935Z,84.41
2019-01-30T00:30:19.428Z,84.40
2019-01-30T00:32:47.767Z,84.11
2019-01-30T00:35:16.108Z,84.29
2019-01-30T00:37:44.499Z,84.40
2019-01-30T00:40:16.305Z,83.90
2019-01-30T00:42:44.752Z,84.00
2019-01-30T00:45:16.213Z,83.63
2019-01-30T00:47:44.719Z,83.69
2019-01-30T00:50:16.284Z,83.37
2019-01-30T00:52:44.654Z,83.58
2019-01-30T00:55:14.389Z,83.08
2019-01-30T00:57:42.755Z,83.05
2019-01-30T01:00:22.471Z,82.98
2019-01-30T01:02:50.837Z,82.48
2019-01-30T01:05:19.226Z,82.73
2019-01-30T01:07:47.620Z,82.36
2019-01-30T01:10:18.473Z,82.46
2019-01-30T01:12:46.776Z,82.35
2019-01-30T01:15:16.513Z,81.64
2019-01-30T01:17:45.856Z,81.43
2019-01-30T01:20:23.175Z,81.45
2019-01-30T01:22:51.519Z,81.71
2019-01-30T01:25:20.082Z,82.12
2019-01-30T01:27:48.586Z,81.78
2019-01-30T01:30:25.165Z,82.02
2019-01-30T01:32:53.507Z,81.37
2019-01-30T01:35:22.083Z,81.74
2019-01-30T01:37:50.447Z,81.35
2019-01-30T01:40:18.800Z,81.54
2019-01-30T01:42:47.140Z,81.58
2019-01-30T01:45:18.719Z,81.70
2019-01-30T01:47:47.096Z,81.72
2019-01-30T01:50:17.693Z,81.89
2019-01-30T01:52:46.058Z,81.88
2019-01-30T01:55:14.553Z,81.82
2019-01-30T01:57:42.815Z,82.02
2019-01-30T02:00:14.473Z,81.71
2019-01-30T02:02:42.865Z,81.34
2019-01-30T02:05:16.833Z,81.39
2019-01-30T02:07:45.195Z,81.84
2019-01-30T02:10:16.798Z,82.17
2019-01-30T02:12:45.130Z,82.23
2019-01-30T02:15:16.800Z,82.04
2019-01-30T02:17:45.153Z,82.44
2019-01-30T02:20:16.895Z,82.62
2019-01-30T02:22:45.239Z,82.43
2019-01-30T02:25:13.724Z,82.07
2019-01-30T02:27:42.091Z,82.29
2019-01-30T02:30:22.222Z,82.12
2019-01-30T02:32:50.539Z,82.71
2019-01-30T02:35:18.816Z,82.64
2019-01-30T02:37:47.169Z,82.67
2019-01-30T02:40:18.053Z,82.46
2019-01-30T02:42:46.331Z,82.83
2019-01-30T02:45:20.124Z,82.86
2019-01-30T02:47:48.576Z,82.59
2019-01-30T02:50:19.221Z,82.63
2019-01-30T02:52:47.502Z,82.46
2019-01-30T02:55:18.123Z,82.62
2019-01-30T02:57:46.482Z,82.40
2019-01-30T03:00:18.099Z,82.63
2019-01-30T03:02:46.499Z,82.57
2019-01-30T03:05:14.877Z,82.60
2019-01-30T03:07:43.212Z,82.75
2019-01-30T03:10:17.124Z,82.54
2019-01-30T03:12:45.468Z,82.59
2019-01-30T03:15:16.177Z,82.72
2019-01-30T03:17:44.476Z,82.82
2019-01-30T03:20:16.296Z,83.09
2019-01-30T03:22:44.618Z,83.25
2019-01-30T03:25:15.142Z,82.74
2019-01-30T03:27:43.577Z,83.07
2019-01-30T03:30:17.521Z,83.28
2019-01-30T03:32:45.940Z,83.03
2019-01-30T03:35:14.315Z,82.69
2019-01-30T03:37:42.636Z,82.92
2019-01-30T03:40:14.501Z,82.75
2019-01-30T03:42:42.770Z,82.99
2019-01-30T03:45:14.529Z,82.60
2019-01-30T03:47:42.844Z,82.74
2019-01-30T03:50:13.550Z,82.44
2019-01-30T03:52:41.842Z,82.80
2019-01-30T03:55:16.435Z,82.63
2019-01-30T03:57:44.808Z,82.21
2019-01-30T04:00:16.605Z,82.28
2019-01-30T04:02:45.005Z,82.19
2019-01-30T04:05:13.426Z,82.07
2019-01-30T04:07:41.769Z,81.93
2019-01-30T04:10:19.448Z,81.79
2019-01-30T04:12:47.744Z,81.71
2019-01-30T04:15:16.225Z,82.22
2019-01-30T04:17:44.565Z,81.96
2019-01-30T04:20:15.602Z,81.94
2019-01-30T04:22:44.037Z,81.78
2019-01-30T04:25:12.330Z,82.14
2019-01-30T04:27:40.731Z,82.18
2019-01-30T04:30:17.712Z,82.31
2019-01-30T04:32:46.096Z,82.61
2019-01-30T04:35:14.534Z,82.69
2019-01-30T04:37:42.855Z,82.31
2019-01-30T04:40:14.709Z,82.65
2019-01-30T04:42:43.018Z,82.69
2019-01-30T04:45:14.612Z,82.57
2019-01-30T04:47:43.014Z,82.41
2019-01-30T04:50:11.327Z,82.48
2019-01-30T04:52:39.928Z,82.01
2019-01-30T04:55:09.445Z,81.94
2019-01-30T04:57:37.861Z,82.06
2019-01-30T05:00:09.501Z,82.34
2019-01-30T05:02:37.838Z,82.23
2019-01-30T05:05:09.754Z,82.14
2019-01-30T05:07:38.102Z,82.17
2019-01-30T05:10:09.783Z,82.19
2019-01-30T05:12:38.118Z,82.13
2019-01-30T05:15:10.004Z,82.19
2019-01-30T05:17:38.337Z,81.64
2019-01-30T05:20:10.133Z,81.67
2019-01-30T05:22:38.509Z,81.33
2019-01-30T05:25:08.496Z,81.58
2019-01-30T05:27:36.866Z,81.23
2019-01-30T05:30:30.075Z,81.49
2019-01-30T05:32:58.407Z,81.17
2019-01-30T05:35:26.789Z,81.24
2019-01-30T05:37:55.189Z,81.07
2019-01-30T05:40:23.971Z,81.22
2019-01-30T05:42:52.278Z,81.00
2019-01-30T05:45:21.402Z,80.45
2019-01-30T05:47:50.773Z,80.78
2019-01-30T05:50:19.840Z,80.45
2019-01-30T05:52:59.648Z,81.07
2019-01-30T05:55:28.096Z,80.98
2019-01-30T05:57:56.444Z,81.34
2019-01-30T06:00:36.256Z,81.58
2019-01-30T06:03:04.600Z,81.31
2019-01-30T06:05:33.946Z,81.52
2019-01-30T06:08:06.665Z,81.08
2019-01-30T06:10:49.808Z,82.25
2019-01-30T06:13:19.212Z,82.06
2019-01-30T06:15:47.487Z,82.82
2019-01-30T06:18:15.888Z,82.60
2019-01-30T06:20:44.174Z,82.71
2019-01-30T06:23:12.588Z,82.96
2019-01-30T06:25:41.043Z,82.92
2019-01-30T06:28:09.448Z,82.88
2019-01-30T06:30:38.707Z,83.12
2019-01-30T06:33:07.179Z,83.22
2019-01-30T06:35:35.449Z,83.35
2019-01-30T06:38:04.882Z,83.32
2019-01-30T06:40:33.578Z,83.64
2019-01-30T06:43:02.819Z,83.56
2019-01-30T06:45:31.253Z,83.55
2019-01-30T06:47:59.589Z,83.45
2019-01-30T06:50:28.943Z,83.53
2019-01-30T06:52:57.344Z,83.52
2019-01-30T06:55:25.754Z,83.64
2019-01-30T06:57:54.069Z,84.02
2019-01-30T07:00:26.400Z,84.06
2019-01-30T07:02:55.829Z,84.18
2019-01-30T07:05:24.243Z,84.11
2019-01-30T07:07:52.590Z,84.38
2019-01-30T07:10:23.193Z,84.58
2019-01-30T07:12:51.753Z,84.19
2019-01-30T07:15:20.106Z,84.15
2019-01-30T07:17:48.557Z,84.35
2019-01-30T07:20:17.419Z,84.39
2019-01-30T07:22:45.894Z,84.05
2019-01-30T07:25:16.770Z,83.91
2019-01-30T07:27:45.286Z,84.26
2019-01-30T07:30:18.733Z,84.59
2019-01-30T07:32:47.018Z,84.28
2019-01-30T07:35:15.474Z,84.26
2019-01-30T07:37:43.922Z,84.29
2019-01-30T07:40:14.444Z,84.36
2019-01-30T07:42:42.825Z,84.36
2019-01-30T07:45:14.150Z,84.38
2019-01-30T07:47:42.504Z,83.74
2019-01-30T07:50:11.232Z,83.50
2019-01-30T07:52:39.653Z,83.56
2019-01-30T07:55:11.309Z,83.25
2019-01-30T07:57:39.675Z,83.75
2019-01-30T08:00:11.350Z,83.34
2019-01-30T08:02:39.699Z,82.79
2019-01-30T08:05:09.384Z,82.76
2019-01-30T08:07:37.837Z,82.76
2019-01-30T08:10:12.148Z,82.51
2019-01-30T08:12:40.587Z,82.63
2019-01-30T08:15:11.905Z,82.14
2019-01-30T08:17:40.318Z,82.19
2019-01-30T08:20:14.290Z,82.03
2019-01-30T08:22:42.710Z,81.92
2019-01-30T08:25:13.618Z,81.73
2019-01-30T08:27:42.039Z,81.67
2019-01-30T08:30:22.453Z,81.51
2019-01-30T08:32:46.581Z,81.61
2019-01-30T08:35:15.751Z,80.95
2019-01-30T08:37:45.879Z,80.82
2019-01-30T08:40:14.381Z,80.60
2019-01-30T08:42:42.731Z,80.59
2019-01-30T08:45:16.704Z,80.18
2019-01-30T08:47:45.119Z,80.46
2019-01-30T08:50:14.524Z,79.93
2019-01-30T08:52:43.001Z,79.69
2019-01-30T08:55:12.537Z,79.32
2019-01-30T08:57:40.815Z,79.30
2019-01-30T09:00:12.397Z,79.18
2019-01-30T09:02:40.889Z,79.20
2019-01-30T09:05:10.627Z,78.63
2019-01-30T09:07:44.283Z,78.70
2019-01-30T09:10:11.777Z,79.12
2019-01-30T09:12:40.337Z,78.31
2019-01-30T09:15:12.054Z,77.97
2019-01-30T09:17:40.420Z,78.78
2019-01-30T09:20:12.046Z,78.07
2019-01-30T09:22:40.437Z,77.63
2019-01-30T09:25:17.557Z,77.11
2019-01-30T09:27:45.895Z,76.65
2019-01-30T09:30:19.519Z,76.02
2019-01-30T09:32:47.879Z,74.88
2019-01-30T09:35:16.295Z,73.72
2019-01-30T09:37:45.341Z,73.06
2019-01-30T09:40:17.110Z,74.88
2019-01-30T09:42:45.848Z,74.14
2019-01-30T09:45:18.596Z,74.45
2019-01-30T09:47:47.013Z,74.84
2019-01-30T09:50:21.378Z,75.31
2019-01-30T09:52:49.844Z,74.42
2019-01-30T09:55:18.199Z,74.47
2019-01-30T09:57:46.803Z,74.46
2019-01-30T10:00:27.027Z,74.16
2019-01-30T10:02:55.392Z,72.79
2019-01-30T10:05:23.747Z,72.40
2019-01-30T10:07:52.196Z,72.90
2019-01-30T10:10:30.014Z,71.84
2019-01-30T10:12:58.333Z,71.90
2019-01-30T10:15:30.115Z,72.25
2019-01-30T10:17:58.447Z,71.12
2019-01-30T10:20:29.184Z,70.53
2019-01-30T10:22:57.524Z,70.09
2019-01-30T10:25:25.986Z,70.88
2019-01-30T10:27:54.341Z,70.13
2019-01-30T10:30:53.680Z,70.20
2019-01-30T10:33:22.017Z,69.71
2019-01-30T10:35:50.390Z,70.71
2019-01-30T10:38:18.714Z,70.98
2019-01-30T10:40:47.057Z,69.83
2019-01-30T10:43:15.363Z,70.27
2019-01-30T10:45:43.749Z,70.47
2019-01-30T10:48:12.080Z,69.83
2019-01-30T10:50:40.631Z,70.38
2019-01-30T10:53:09.054Z,69.98
2019-01-30T10:55:37.365Z,71.29
2019-01-30T10:58:09.110Z,71.14
2019-01-30T11:00:40.771Z,70.48
2019-01-30T11:03:09.123Z,70.41
2019-01-30T11:05:37.641Z,70.45
2019-01-30T11:08:06.216Z,69.82
2019-01-30T11:10:34.487Z,70.91
2019-01-30T11:13:02.882Z,70.76
2019-01-30T11:15:31.546Z,70.45
2019-01-30T11:18:00.786Z,70.45
2019-01-30T11:20:30.225Z,69.93
2019-01-30T11:22:59.349Z,69.88
2019-01-30T11:25:33.706Z,70.51
2019-01-30T11:28:02.181Z,70.09
2019-01-30T11:30:31.084Z,71.07
2019-01-30T11:32:59.458Z,70.03
2019-01-30T11:35:27.807Z,70.61
2019-01-30T11:37:56.189Z,70.02
2019-01-30T11:40:24.812Z,70.49
2019-01-30T11:42:53.228Z,70.56
2019-01-30T11:45:37.154Z,69.90
2019-01-30T11:48:06.206Z,70.64
2019-01-30T11:50:34.554Z,69.85
2019-01-30T11:53:03.049Z,70.47
2019-01-30T11:55:31.436Z,70.47
2019-01-30T11:58:00.301Z,70.29
2019-01-30T12:00:46.166Z,69.88
2019-01-30T12:03:14.519Z,70.25
2019-01-30T12:05:43.300Z,69.60
2019-01-30T12:08:11.804Z,69.45
2019-01-30T12:10:40.141Z,69.14
2019-01-30T12:13:08.482Z,69.32
2019-01-30T12:15:38.543Z,69.03
2019-01-30T12:18:06.982Z,69.33
2019-01-30T12:20:38.821Z,69.16
2019-01-30T12:23:07.133Z,69.21
2019-01-30T12:25:35.598Z,69.38
2019-01-30T12:28:04.864Z,69.84
2019-01-30T12:30:33.217Z,69.92
2019-01-30T12:33:01.612Z,68.99
2019-01-30T12:35:30.499Z,70.06
2019-01-30T12:37:58.860Z,71.17
2019-01-30T12:40:27.651Z,71.10
2019-01-30T12:42:56.038Z,71.35
2019-01-30T12:45:32.210Z,71.78
2019-01-30T12:48:00.488Z,71.48
2019-01-30T12:50:28.959Z,72.11
2019-01-30T12:52:57.299Z,71.19
2019-01-30T12:55:25.677Z,71.76
2019-01-30T12:57:54.044Z,71.60
2019-01-30T13:00:31.244Z,71.52
2019-01-30T13:02:59.895Z,71.29
2019-01-30T13:05:28.205Z,71.29
2019-01-30T13:07:56.486Z,72.11
2019-01-30T13:10:24.777Z,72.04
2019-01-30T13:12:53.069Z,72.21
2019-01-30T13:15:24.705Z,72.02
2019-01-30T13:17:53.076Z,71.82
2019-01-30T13:20:23.095Z,72.20
2019-01-30T13:22:51.452Z,72.12
2019-01-30T13:25:28.822Z,72.52
2019-01-30T13:27:57.253Z,72.62
2019-01-30T13:30:28.432Z,72.72
2019-01-30T13:32:56.725Z,72.58
2019-01-30T13:35:25.091Z,73.04
2019-01-30T13:37:53.495Z,73.04
2019-01-30T13:40:24.749Z,72.96
2019-01-30T13:42:53.188Z,72.64
2019-01-30T13:45:21.467Z,73.04
2019-01-30T13:47:49.845Z,74.24
2019-01-30T13:50:21.269Z,73.62
2019-01-30T13:52:49.626Z,74.67
2019-01-30T13:55:18.021Z,75.35
2019-01-30T13:57:46.396Z,73.76
2019-01-30T14:00:23.412Z,74.90
2019-01-30T14:02:51.880Z,74.93
2019-01-30T14:05:20.163Z,75.66
2019-01-30T14:07:48.468Z,77.53
2019-01-30T14:10:16.922Z,79.42
2019-01-30T14:12:45.507Z,79.82
2019-01-30T14:15:22.742Z,80.33
2019-01-30T14:17:51.076Z,80.99
2019-01-30T14:20:19.482Z,81.07
2019-01-30T14:22:47.988Z,81.74
2019-01-30T14:25:17.110Z,81.61
2019-01-30T14:27:45.565Z,81.87
2019-01-30T14:30:28.785Z,82.29
2019-01-30T14:32:57.121Z,81.93
2019-01-30T14:35:28.118Z,82.30
2019-01-30T14:37:56.469Z,82.73
2019-01-30T14:40:24.867Z,82.38
2019-01-30T14:42:53.165Z,82.18
2019-01-30T14:45:21.581Z,82.37
2019-01-30T14:47:52.442Z,82.90
2019-01-30T14:50:26.796Z,83.39
2019-01-30T14:52:55.184Z,84.36
2019-01-30T14:55:23.572Z,84.33
2019-01-30T14:57:54.286Z,84.28
2019-01-30T15:00:28.951Z,84.75
2019-01-30T15:02:57.392Z,84.69
2019-01-30T15:05:25.858Z,84.68
2019-01-30T15:07:54.321Z,85.15
2019-01-30T15:10:25.493Z,83.94
2019-01-30T15:12:53.919Z,83.99
2019-01-30T15:15:25.503Z,84.04
2019-01-30T15:17:53.876Z,84.89
2019-01-30T15:20:25.060Z,85.74
2019-01-30T15:22:53.517Z,85.27
2019-01-30T15:25:24.018Z,85.50
2019-01-30T15:27:52.432Z,85.43
2019-01-30T15:30:29.926Z,86.29
2019-01-30T15:32:58.217Z,86.63
2019-01-30T15:35:33.114Z,87.03
2019-01-30T15:37:56.718Z,87.98
2019-01-30T15:40:30.347Z,88.01
2019-01-30T15:42:58.672Z,88.55
2019-01-30T15:45:27.040Z,88.16
2019-01-30T15:47:55.464Z,88.32
2019-01-30T15:50:27.232Z,88.58
2019-01-30T15:52:56.668Z,89.45
2019-01-30T15:55:25.107Z,89.69
2019-01-30T15:57:56.678Z,89.63
2019-01-30T16:00:30.959Z,89.09
2019-01-30T16:02:59.318Z,89.29
2019-01-30T16:05:27.713Z,89.72
2019-01-30T16:07:56.049Z,89.97
2019-01-30T16:10:24.484Z,91.00
2019-01-30T16:12:52.804Z,90.67
2019-01-30T16:15:24.647Z,90.17
2019-01-30T16:17:53.001Z,90.32
2019-01-30T16:20:21.416Z,90.27
2019-01-30T16:22:49.752Z,90.38
2019-01-30T16:25:19.061Z,90.64
2019-01-30T16:27:47.641Z,90.79
2019-01-30T16:30:24.522Z,90.82
2019-01-30T16:32:52.830Z,90.55
2019-01-30T16:35:24.602Z,90.90
2019-01-30T16:37:53.022Z,91.31
2019-01-30T16:40:25.550Z,91.14
2019-01-30T16:42:54.751Z,91.46
2019-01-30T16:45:33.682Z,91.82
2019-01-30T16:48:03.278Z,92.06
2019-01-30T16:50:34.320Z,92.70
2019-01-30T16:53:01.697Z,92.35
2019-01-30T16:55:30.272Z,92.18
2019-01-30T16:57:58.678Z,92.43
2019-01-30T17:00:35.542Z,92.60
2019-01-30T17:03:07.528Z,92.55
2019-01-30T17:05:39.308Z,92.62
2019-01-30T17:08:08.045Z,92.82
2019-01-30T17:10:36.420Z,92.98
2019-01-30T17:13:06.570Z,93.17
2019-01-30T17:15:41.521Z,93.07
2019-01-30T17:18:12.860Z,93.03
2019-01-30T17:20:41.837Z,93.03
2019-01-30T17:23:11.946Z,93.13
2019-01-30T17:25:40.388Z,93.28
2019-01-30T17:28:17.051Z,93.51
2019-01-30T17:30:52.093Z,93.65
2019-01-30T17:33:21.216Z,93.73
2019-01-30T17:35:51.105Z,93.84
2019-01-30T17:38:29.080Z,94.01
2019-01-30T17:40:59.087Z,94.02
2019-01-30T17:43:29.457Z,94.00
2019-01-30T17:45:58.798Z,94.34
2019-01-30T17:48:27.348Z,94.44
2019-01-30T17:50:56.198Z,94.39
2019-01-30T17:53:24.605Z,94.40
2019-01-30T17:55:52.890Z,94.43
2019-01-30T17:58:24.710Z,94.38
2019-01-30T18:00:54.777Z,94.66
2019-01-30T18:03:26.114Z,94.77
2019-01-30T18:05:58.932Z,94.64
2019-01-30T18:08:30.505Z,94.53
2019-01-30T18:10:59.708Z,94.52
2019-01-30T18:13:30.997Z,94.64
2019-01-30T18:16:00.045Z,94.65
2019-01-30T18:18:31.057Z,94.54
2019-01-30T18:21:00.023Z,94.66
2019-01-30T18:23:28.909Z,95.03
2019-01-30T18:26:07.906Z,95.43
2019-01-30T18:28:38.652Z,95.42
2019-01-30T18:31:07.287Z,95.54
2019-01-30T18:33:36.728Z,95.45
2019-01-30T18:36:07.346Z,95.50
2019-01-30T18:38:37.141Z,95.72
2019-01-30T18:41:16.767Z,95.62
2019-01-30T18:43:46.244Z,95.73
2019-01-30T18:46:14.595Z,95.90
2019-01-30T18:48:43.758Z,95.99
2019-01-30T18:51:12.153Z,95.87
2019-01-30T18:53:48.158Z,95.80
2019-01-30T18:56:18.356Z,95.60
2019-01-30T18:58:47.270Z,95.61
2019-01-30T19:01:26.724Z,95.31
2019-01-30T19:03:55.665Z,95.01
2019-01-30T19:06:24.140Z,94.82
2019-01-30T19:08:58.723Z,94.65
2019-01-30T19:11:27.235Z,94.66
2019-01-30T19:13:58.546Z,94.64
2019-01-30T19:16:36.053Z,94.47
2019-01-30T19:19:05.146Z,94.70
2019-01-30T19:21:35.749Z,94.80
2019-01-30T19:24:09.713Z,94.79
2019-01-30T19:26:38.816Z,94.39
2019-01-30T19:29:09.339Z,94.18
2019-01-30T19:31:41.623Z,94.57
2019-01-30T19:34:11.375Z,94.61
2019-01-30T19:36:46.016Z,94.50
2019-01-30T19:39:15.549Z,94.53
2019-01-30T19:41:44.228Z,95.08
2019-01-30T19:44:23.576Z,95.40
2019-01-30T19:46:52.813Z,95.54
2019-01-30T19:49:22.912Z,95.59
2019-01-30T19:51:56.661Z,95.59
2019-01-30T19:54:25.145Z,95.60
2019-01-30T19:56:54.056Z,95.60
2019-01-30T19:59:28.151Z,95.74
2019-01-30T20:01:56.624Z,95.90
2019-01-30T20:04:26.436Z,95.83
2019-01-30T20:06:56.311Z,96.00
2019-01-30T20:09:27.862Z,96.24
2019-01-30T20:11:56.834Z,96.31
2019-01-30T20:14:26.470Z,96.28
2019-01-30T20:16:54.943Z,96.14
2019-01-30T20:19:23.766Z,96.23
2019-01-30T20:21:56.652Z,96.41
2019-01-30T20:24:29.108Z,96.35
2019-01-30T20:26:58.529Z,96.25
2019-01-30T20:29:35.350Z,96.17
2019-01-30T20:32:05.547Z,95.96
2019-01-30T20:34:34.620Z,95.96
2019-01-30T20:37:03.636Z,95.96
2019-01-30T20:39:32.097Z,96.01
2019-01-30T20:42:03.156Z,96.18
2019-01-30T20:44:31.628Z,96.25
2019-01-30T20:47:10.121Z,96.24
2019-01-30T20:49:39.916Z,96.42
2019-01-30T20:52:13.119Z,96.36
2019-01-30T20:54:41.470Z,96.43
2019-01-30T20:57:10.054Z,96.42
2019-01-30T20:59:38.382Z,96.42
2019-01-30T21:02:09.250Z,96.49
2019-01-30T21:04:37.647Z,96.52
2019-01-30T21:07:06.070Z,96.40
2019-01-30T21:09:36.151Z,96.46
2019-01-30T21:12:04.835Z,96.45
2019-01-30T21:14:33.310Z,96.42
2019-01-30T21:17:02.472Z,96.36
2019-01-30T21:19:30.927Z,96.38
2019-01-30T21:21:59.370Z,96.34
2019-01-30T21:24:27.737Z,96.33
2019-01-30T21:26:56.162Z,96.26
2019-01-30T21:29:24.652Z,96.16
2019-01-30T21:31:54.885Z,96.09
2019-01-30T21:34:30.398Z,96.04
2019-01-30T21:36:58.843Z,96.11
2019-01-30T21:39:28.075Z,95.92
2019-01-30T21:41:56.779Z,96.00
2019-01-30T21:44:25.300Z,95.97
2019-01-30T21:46:53.644Z,96.28
2019-01-30T21:49:21.949Z,96.45
2019-01-30T21:51:50.310Z,96.49
2019-01-30T21:54:18.917Z,96.41
2019-01-30T21:56:47.355Z,96.40
2019-01-30T21:59:16.236Z,96.37
2019-01-30T22:01:44.679Z,96.39
2019-01-30T22:04:12.995Z,96.45
2019-01-30T22:06:41.332Z,96.35
2019-01-30T22:09:09.819Z,96.41
2019-01-30T22:11:38.299Z,96.45
2019-01-30T22:14:06.896Z,96.62
2019-01-30T22:16:36.417Z,96.79
2019-01-30T22:19:05.840Z,96.99
2019-01-30T22:21:34.356Z,97.16
2019-01-30T22:24:05.474Z,97.24
2019-01-30T22:26:33.050Z,97.29
2019-01-30T22:29:02.711Z,97.26
2019-01-30T22:31:31.258Z,97.17
2019-01-30T22:33:59.603Z,97.08
2019-01-30T22:36:28.065Z,97.16
2019-01-30T22:38:56.481Z,97.27
2019-01-30T22:41:24.937Z,97.33
2019-01-30T22:43:53.339Z,97.43
2019-01-30T22:46:21.717Z,97.51
2019-01-30T22:48:50.130Z,97.54
2019-01-30T22:51:18.515Z,97.55
2019-01-30T22:53:46.874Z,97.31
2019-01-30T22:56:15.257Z,97.09
2019-01-30T22:58:43.539Z,96.91
2019-01-30T23:01:42.145Z,96.81
2019-01-30T23:04:38.060Z,96.78
2019-01-30T23:07:12.567Z,96.81
2019-01-30T23:09:47.092Z,97.01
2019-01-30T23:12:24.489Z,97.07
2019-01-30T23:15:14.273Z,97.01
2019-01-30T23:18:05.266Z,97.20
2019-01-30T23:20:35.379Z,97.36
2019-01-30T23:23:22.891Z,97.39
2019-01-30T23:25:57.635Z,97.40
2019-01-30T23:28:34.901Z,97.45
2019-01-30T23:31:12.027Z,97.23
2019-01-30T23:34:06.261Z,97.17
2019-01-30T23:36:40.392Z,97.17
2019-01-30T23:39:40.605Z,97.01
2019-01-30T23:42:29.101Z,97.08
2019-01-30T23:45:04.264Z,97.14
2019-01-30T23:47:53.801Z,97.21
2019-01-30T23:50:47.282Z,97.29
2019-01-30T23:53:34.524Z,97.27
2019-01-30T23:56:09.669Z,97.20
2019-01-30T23:58:59.931Z,97.30
